Wilson Lahn — 8PUO — position and weather

sailwx.info

Track history (hours):
 
Tides and Currents Weather Stations Pressure Air Temp Water Temp Dewpoint Dewpoint Depression Visibility Wind Speed Wind Dir Waves Ship Positions

Wilson Lahn

Last reported at 2014-Sep-16 22:09 UTC. Time now 2014-Sep-18 01:41 UTC.
Position N 53°42' W 000°28'.

Length 83 m; draft 3.9 m.

Type: Cargo ship. MMSI: 314259000.

Date/timePositionNaut miles runAvg speedWind from/ knotsBaromVisibWave heightAir tempDewpointWater temp
2014-Sep-16 22:09N 53°42' W 000°28'5 8.3
2014-Sep-16 21:33N 53°43' W 000°19'8 8.0
2014-Sep-16 20:33N 53°38' W 000°09'9 9.3
2014-Sep-16 19:34N 53°34' E 000°05'8 7.9
2014-Sep-16 18:33N 53°36' E 000°19'9 8.8
2014-Sep-16 17:33N 53°43' E 000°27'328 7.9
2014-Sep-15 00:15N 58°11' E 006°04'710.3
2014-Sep-14 23:34N 58°17' E 006°12'4 0.8
2014-Sep-14 18:25N 58°18' E 006°19'5 5.7
2014-Sep-14 17:33N 58°14' E 006°15'1110.7
2014-Sep-14 16:31N 58°05' E 006°29'11611.1
2014-Sep-14 06:05N 59°03' E 009°42'92 2.8
2014-Sep-12 21:29N 57°43' E 011°09'910.2
2014-Sep-12 20:33N 57°35' E 011°18'1010.1
2014-Sep-12 19:33N 57°26' E 011°27'1010.2
2014-Sep-12 18:33N 57°16' E 011°33'1110.3
2014-Sep-12 17:26N 57°06' E 011°41'910.3
2014-Sep-12 16:32N 56°57' E 011°46'10 9.9
2014-Sep-12 15:33N 56°48' E 011°52'11 9.5
2014-Sep-12 14:21N 56°37' E 011°59'8 9.5
2014-Sep-12 13:33N 56°30' E 012°05'10 9.8
2014-Sep-12 12:33N 56°22' E 012°15'1010.2
2014-Sep-12 11:33N 56°14' E 012°25'1111.3
2014-Sep-12 10:33N 56°05' E 012°38'5 4.6
2014-Sep-12 09:31N 56°01' E 012°43'0 0.0
2014-Sep-12 08:31N 56°01' E 012°43'0 0.0
2014-Sep-12 07:31N 56°01' E 012°43'0 0.0
2014-Sep-12 06:31N 56°01' E 012°43'0 0.0
2014-Sep-12 05:28N 56°01' E 012°43'0 0.0
2014-Sep-12 04:31N 56°01' E 012°43'0 0.0
2014-Sep-12 03:28N 56°01' E 012°43'0 0.0
2014-Sep-12 02:31N 56°01' E 012°43'0 0.0
2014-Sep-12 01:31N 56°01' E 012°43'0 0.0
2014-Sep-12 00:28N 56°01' E 012°43'0 0.0
2014-Sep-11 23:31N 56°01' E 012°43'0 0.0
2014-Sep-11 22:31N 56°01' E 012°43'0 0.0
2014-Sep-11 21:31N 56°01' E 012°43'0 0.0
2014-Sep-11 20:31N 56°01' E 012°43'0 0.0
2014-Sep-11 19:31N 56°01' E 012°43'0 0.0
2014-Sep-11 18:31N 56°01' E 012°43'0 0.0
2014-Sep-11 17:31N 56°01' E 012°43'0 0.0
2014-Sep-11 16:28N 56°01' E 012°43'0 0.0
2014-Sep-11 15:31N 56°01' E 012°43'0 0.0
2014-Sep-11 14:31N 56°01' E 012°43'0 0.0
2014-Sep-11 13:31N 56°01' E 012°43'0 0.0
2014-Sep-11 12:31N 56°01' E 012°43'0 0.0
2014-Sep-11 11:28N 56°01' E 012°43'0 0.0
2014-Sep-11 10:28N 56°01' E 012°43'0 0.0
2014-Sep-11 09:31N 56°01' E 012°43'0 0.0
2014-Sep-11 08:31N 56°01' E 012°43'0 0.0
2014-Sep-11 07:31N 56°01' E 012°43'0 0.0
2014-Sep-11 06:31N 56°01' E 012°43'0 0.0
2014-Sep-11 05:31N 56°01' E 012°43'0 0.0
2014-Sep-11 04:31N 56°01' E 012°43'0 0.0
2014-Sep-11 03:28N 56°01' E 012°43'0 0.0
2014-Sep-11 02:31N 56°01' E 012°43'0 0.0
2014-Sep-11 01:31N 56°01' E 012°43'0 0.0
2014-Sep-11 00:31N 56°01' E 012°43'0 0.0
2014-Sep-10 23:31N 56°01' E 012°43'0 0.0
2014-Sep-10 22:31N 56°01' E 012°43'0 0.0
2014-Sep-10 21:31N 56°01' E 012°43'0 0.0
2014-Sep-10 20:31N 56°01' E 012°43'0 0.0
2014-Sep-10 19:31N 56°01' E 012°43'0 0.0
2014-Sep-10 18:33N 56°01' E 012°43'4 4.1
2014-Sep-10 17:34N 56°04' E 012°38'10 9.7
2014-Sep-10 16:33N 56°09' E 012°24'9 9.0
2014-Sep-10 15:34N 56°15' E 012°11'8 8.5
2014-Sep-10 14:34N 56°22' E 012°02'4 4.2
2014-Sep-10 13:34N 56°26' E 012°04'8 7.7
2014-Sep-10 12:33N 56°22' E 012°15'9 8.8
2014-Sep-10 11:33N 56°14' E 012°24'9 9.0
2014-Sep-10 10:34N 56°07' E 012°34'8 8.2
2014-Sep-10 09:33N 56°00' E 012°41'1 0.7
2014-Sep-10 08:32N 56°00' E 012°43'0 0.0
2014-Sep-10 07:29N 56°00' E 012°43'0 0.0
2014-Sep-10 06:32N 56°00' E 012°43'0 0.0
2014-Sep-10 05:32N 56°00' E 012°43'0 0.0
2014-Sep-10 04:32N 56°00' E 012°43'0 0.0
2014-Sep-10 03:32N 56°00' E 012°43'0 0.0
2014-Sep-10 02:32N 56°00' E 012°43'0 0.0
2014-Sep-10 01:32N 56°00' E 012°43'0 0.0
2014-Sep-10 00:32N 56°00' E 012°43'0 0.0
2014-Sep-09 23:32N 56°00' E 012°43'0 0.0
2014-Sep-09 22:32N 56°00' E 012°43'0 0.0
2014-Sep-09 21:32N 56°00' E 012°43'0 0.0
2014-Sep-09 20:32N 56°00' E 012°43'0 0.0
2014-Sep-09 19:32N 56°00' E 012°43'0 0.0
2014-Sep-09 18:32N 56°00' E 012°43'0 0.0
2014-Sep-09 17:32N 56°00' E 012°43'0 0.0
2014-Sep-09 16:32N 56°00' E 012°43'0 0.0
2014-Sep-09 15:32N 56°00' E 012°43'0 0.0
2014-Sep-09 14:32N 56°00' E 012°43'0 0.0
2014-Sep-09 13:32N 56°00' E 012°43'0 0.0
2014-Sep-09 12:32N 56°00' E 012°43'0 0.0
2014-Sep-09 11:32N 56°00' E 012°43'0 0.0
2014-Sep-09 10:32N 56°00' E 012°43'0 0.0
2014-Sep-09 09:32N 56°00' E 012°43'0 0.0
2014-Sep-09 08:32N 56°00' E 012°43'0 0.0
2014-Sep-09 07:32N 56°00' E 012°43'0 0.0
2014-Sep-09 06:33N 56°00' E 012°43'0 0.0
2014-Sep-09 05:33N 56°00' E 012°43'0 0.0
2014-Sep-09 04:33N 56°00' E 012°43'0 0.0
2014-Sep-09 03:30N 56°00' E 012°43'0 0.0
2014-Sep-09 02:32N 56°00' E 012°43'0 0.0
2014-Sep-09 01:32N 56°00' E 012°43'0 0.0
2014-Sep-09 00:29N 56°00' E 012°43'0 0.0
2014-Sep-08 23:32N 56°00' E 012°43'0 0.0
2014-Sep-08 22:32N 56°00' E 012°43'0 0.0
2014-Sep-08 21:29N 56°00' E 012°43'0 0.0
2014-Sep-08 20:32N 56°00' E 012°43'0 0.0
2014-Sep-08 19:32N 56°00' E 012°43'0 0.0
2014-Sep-08 18:32N 56°00' E 012°43'4 3.8
2014-Sep-08 17:33N 56°03' E 012°38'10 9.9
2014-Sep-08 16:33N 56°09' E 012°24'1010.3
2014-Sep-08 15:33N 56°15' E 012°09'9 9.2
2014-Sep-08 14:33N 56°24' E 012°01'57 9.4
2014-Sep-08 08:31N 57°18' E 011°31'10 9.9
2014-Sep-08 07:33N 57°27' E 011°25'10 9.6
2014-Sep-08 06:33N 57°34' E 011°12'2110.3
2014-Sep-08 04:33N 57°47' E 010°43'1110.5
2014-Sep-08 03:33N 57°48' E 010°23'13210.0
2014-Sep-07 14:24N 58°09' E 006°18'8 9.3
2014-Sep-07 13:34N 58°14' E 006°07'10 9.8
2014-Sep-07 12:33N 58°21' E 005°53'31 9.5
2014-Sep-07 09:16N 58°46' E 005°18'7 9.8
2014-Sep-07 08:33N 58°52' E 005°12'12 9.9
2014-Sep-07 07:23N 59°03' E 005°01'  
Track history (hours):
 
Tides and Currents Weather Stations Pressure Air Temp Water Temp Dewpoint Dewpoint Depression Visibility Wind Speed Wind Dir Waves Ship Positions

Wilson Lahn

Last reported at 2014-Sep-16 22:09 UTC. Time now 2014-Sep-18 01:41 UTC.
Position N 53°42' W 000°28'.

Length 83 m; draft 3.9 m.

Type: Cargo ship. MMSI: 314259000.

Date/timePositionNaut miles runAvg speedWind from/ knotsBaromVisibWave heightAir tempDewpointWater temp
2014-Sep-16 22:09N 53°42' W 000°28'5 8.3
2014-Sep-16 21:33N 53°43' W 000°19'8 8.0
2014-Sep-16 20:33N 53°38' W 000°09'9 9.3
2014-Sep-16 19:34N 53°34' E 000°05'8 7.9
2014-Sep-16 18:33N 53°36' E 000°19'9 8.8
2014-Sep-16 17:33N 53°43' E 000°27'328 7.9
2014-Sep-15 00:15N 58°11' E 006°04'710.3
2014-Sep-14 23:34N 58°17' E 006°12'4 0.8
2014-Sep-14 18:25N 58°18' E 006°19'5 5.7
2014-Sep-14 17:33N 58°14' E 006°15'1110.7
2014-Sep-14 16:31N 58°05' E 006°29'11611.1
2014-Sep-14 06:05N 59°03' E 009°42'92 2.8
2014-Sep-12 21:29N 57°43' E 011°09'910.2
2014-Sep-12 20:33N 57°35' E 011°18'1010.1
2014-Sep-12 19:33N 57°26' E 011°27'1010.2
2014-Sep-12 18:33N 57°16' E 011°33'1110.3
2014-Sep-12 17:26N 57°06' E 011°41'910.3
2014-Sep-12 16:32N 56°57' E 011°46'10 9.9
2014-Sep-12 15:33N 56°48' E 011°52'11 9.5
2014-Sep-12 14:21N 56°37' E 011°59'8 9.5
2014-Sep-12 13:33N 56°30' E 012°05'10 9.8
2014-Sep-12 12:33N 56°22' E 012°15'1010.2
2014-Sep-12 11:33N 56°14' E 012°25'1111.3
2014-Sep-12 10:33N 56°05' E 012°38'5 4.6
2014-Sep-12 09:31N 56°01' E 012°43'0 0.0
2014-Sep-12 08:31N 56°01' E 012°43'0 0.0
2014-Sep-12 07:31N 56°01' E 012°43'0 0.0
2014-Sep-12 06:31N 56°01' E 012°43'0 0.0
2014-Sep-12 05:28N 56°01' E 012°43'0 0.0
2014-Sep-12 04:31N 56°01' E 012°43'0 0.0
2014-Sep-12 03:28N 56°01' E 012°43'0 0.0
2014-Sep-12 02:31N 56°01' E 012°43'0 0.0
2014-Sep-12 01:31N 56°01' E 012°43'0 0.0
2014-Sep-12 00:28N 56°01' E 012°43'0 0.0
2014-Sep-11 23:31N 56°01' E 012°43'0 0.0
2014-Sep-11 22:31N 56°01' E 012°43'0 0.0
2014-Sep-11 21:31N 56°01' E 012°43'0 0.0
2014-Sep-11 20:31N 56°01' E 012°43'0 0.0
2014-Sep-11 19:31N 56°01' E 012°43'0 0.0
2014-Sep-11 18:31N 56°01' E 012°43'0 0.0
2014-Sep-11 17:31N 56°01' E 012°43'0 0.0
2014-Sep-11 16:28N 56°01' E 012°43'0 0.0
2014-Sep-11 15:31N 56°01' E 012°43'0 0.0
2014-Sep-11 14:31N 56°01' E 012°43'0 0.0
2014-Sep-11 13:31N 56°01' E 012°43'0 0.0
2014-Sep-11 12:31N 56°01' E 012°43'0 0.0
2014-Sep-11 11:28N 56°01' E 012°43'0 0.0
2014-Sep-11 10:28N 56°01' E 012°43'0 0.0
2014-Sep-11 09:31N 56°01' E 012°43'0 0.0
2014-Sep-11 08:31N 56°01' E 012°43'0 0.0
2014-Sep-11 07:31N 56°01' E 012°43'0 0.0
2014-Sep-11 06:31N 56°01' E 012°43'0 0.0
2014-Sep-11 05:31N 56°01' E 012°43'0 0.0
2014-Sep-11 04:31N 56°01' E 012°43'0 0.0
2014-Sep-11 03:28N 56°01' E 012°43'0 0.0
2014-Sep-11 02:31N 56°01' E 012°43'0 0.0
2014-Sep-11 01:31N 56°01' E 012°43'0 0.0
2014-Sep-11 00:31N 56°01' E 012°43'0 0.0
2014-Sep-10 23:31N 56°01' E 012°43'0 0.0
2014-Sep-10 22:31N 56°01' E 012°43'0 0.0
2014-Sep-10 21:31N 56°01' E 012°43'0 0.0
2014-Sep-10 20:31N 56°01' E 012°43'0 0.0
2014-Sep-10 19:31N 56°01' E 012°43'0 0.0
2014-Sep-10 18:33N 56°01' E 012°43'4 4.1
2014-Sep-10 17:34N 56°04' E 012°38'10 9.7
2014-Sep-10 16:33N 56°09' E 012°24'9 9.0
2014-Sep-10 15:34N 56°15' E 012°11'8 8.5
2014-Sep-10 14:34N 56°22' E 012°02'4 4.2
2014-Sep-10 13:34N 56°26' E 012°04'8 7.7
2014-Sep-10 12:33N 56°22' E 012°15'9 8.8
2014-Sep-10 11:33N 56°14' E 012°24'9 9.0
2014-Sep-10 10:34N 56°07' E 012°34'8 8.2
2014-Sep-10 09:33N 56°00' E 012°41'1 0.7
2014-Sep-10 08:32N 56°00' E 012°43'0 0.0
2014-Sep-10 07:29N 56°00' E 012°43'0 0.0
2014-Sep-10 06:32N 56°00' E 012°43'0 0.0
2014-Sep-10 05:32N 56°00' E 012°43'0 0.0
2014-Sep-10 04:32N 56°00' E 012°43'0 0.0
2014-Sep-10 03:32N 56°00' E 012°43'0 0.0
2014-Sep-10 02:32N 56°00' E 012°43'0 0.0
2014-Sep-10 01:32N 56°00' E 012°43'0 0.0
2014-Sep-10 00:32N 56°00' E 012°43'0 0.0
2014-Sep-09 23:32N 56°00' E 012°43'0 0.0
2014-Sep-09 22:32N 56°00' E 012°43'0 0.0
2014-Sep-09 21:32N 56°00' E 012°43'0 0.0
2014-Sep-09 20:32N 56°00' E 012°43'0 0.0
2014-Sep-09 19:32N 56°00' E 012°43'0 0.0
2014-Sep-09 18:32N 56°00' E 012°43'0 0.0
2014-Sep-09 17:32N 56°00' E 012°43'0 0.0
2014-Sep-09 16:32N 56°00' E 012°43'0 0.0
2014-Sep-09 15:32N 56°00' E 012°43'0 0.0
2014-Sep-09 14:32N 56°00' E 012°43'0 0.0
2014-Sep-09 13:32N 56°00' E 012°43'0 0.0
2014-Sep-09 12:32N 56°00' E 012°43'0 0.0
2014-Sep-09 11:32N 56°00' E 012°43'0 0.0
2014-Sep-09 10:32N 56°00' E 012°43'0 0.0
2014-Sep-09 09:32N 56°00' E 012°43'0 0.0
2014-Sep-09 08:32N 56°00' E 012°43'0 0.0
2014-Sep-09 07:32N 56°00' E 012°43'0 0.0
2014-Sep-09 06:33N 56°00' E 012°43'0 0.0
2014-Sep-09 05:33N 56°00' E 012°43'0 0.0
2014-Sep-09 04:33N 56°00' E 012°43'0 0.0
2014-Sep-09 03:30N 56°00' E 012°43'0 0.0
2014-Sep-09 02:32N 56°00' E 012°43'0 0.0
2014-Sep-09 01:32N 56°00' E 012°43'0 0.0
2014-Sep-09 00:29N 56°00' E 012°43'0 0.0
2014-Sep-08 23:32N 56°00' E 012°43'0 0.0
2014-Sep-08 22:32N 56°00' E 012°43'0 0.0
2014-Sep-08 21:29N 56°00' E 012°43'0 0.0
2014-Sep-08 20:32N 56°00' E 012°43'0 0.0
2014-Sep-08 19:32N 56°00' E 012°43'0 0.0
2014-Sep-08 18:32N 56°00' E 012°43'4 3.8
2014-Sep-08 17:33N 56°03' E 012°38'10 9.9
2014-Sep-08 16:33N 56°09' E 012°24'1010.3
2014-Sep-08 15:33N 56°15' E 012°09'9 9.2
2014-Sep-08 14:33N 56°24' E 012°01'57 9.4
2014-Sep-08 08:31N 57°18' E 011°31'10 9.9
2014-Sep-08 07:33N 57°27' E 011°25'10 9.6
2014-Sep-08 06:33N 57°34' E 011°12'2110.3
2014-Sep-08 04:33N 57°47' E 010°43'1110.5
2014-Sep-08 03:33N 57°48' E 010°23'13210.0
2014-Sep-07 14:24N 58°09' E 006°18'8 9.3
2014-Sep-07 13:34N 58°14' E 006°07'10 9.8
2014-Sep-07 12:33N 58°21' E 005°53'31 9.5
2014-Sep-07 09:16N 58°46' E 005°18'7 9.8
2014-Sep-07 08:33N 58°52' E 005°12'12 9.9
2014-Sep-07 07:23N 59°03' E 005°01'  

Dump ship's entire track history